sensor_id;sensor_type;location;lat;lon;timestamp;P1;durP1;ratioP1;P2;durP2;ratioP2
71150;SDS011;59071;42.138;24.768;2023-12-07T00:01:40;32.88;;;15.77;;
71150;SDS011;59071;42.138;24.768;2023-12-07T00:04:05;28.40;;;14.35;;
71150;SDS011;59071;42.138;24.768;2023-12-07T00:06:31;29.52;;;14.20;;
71150;SDS011;59071;42.138;24.768;2023-12-07T00:08:56;29.25;;;14.82;;
71150;SDS011;59071;42.138;24.768;2023-12-07T00:11:23;31.17;;;15.40;;
71150;SDS011;59071;42.138;24.768;2023-12-07T00:13:48;29.70;;;15.18;;
71150;SDS011;59071;42.138;24.768;2023-12-07T00:16:14;26.60;;;13.77;;
71150;SDS011;59071;42.138;24.768;2023-12-07T00:18:39;27.60;;;13.68;;
71150;SDS011;59071;42.138;24.768;2023-12-07T00:21:05;26.25;;;13.82;;
71150;SDS011;59071;42.138;24.768;2023-12-07T00:23:33;27.90;;;13.25;;
71150;SDS011;59071;42.138;24.768;2023-12-07T00:25:58;26.83;;;13.55;;
71150;SDS011;59071;42.138;24.768;2023-12-07T00:28:23;27.35;;;13.27;;
71150;SDS011;59071;42.138;24.768;2023-12-07T00:30:49;25.80;;;12.73;;
71150;SDS011;59071;42.138;24.768;2023-12-07T00:33:14;24.67;;;12.80;;
71150;SDS011;59071;42.138;24.768;2023-12-07T00:35:41;24.95;;;12.68;;
71150;SDS011;59071;42.138;24.768;2023-12-07T00:38:07;25.58;;;12.07;;
71150;SDS011;59071;42.138;24.768;2023-12-07T00:40:33;23.27;;;13.20;;
71150;SDS011;59071;42.138;24.768;2023-12-07T00:43:01;24.90;;;12.82;;
71150;SDS011;59071;42.138;24.768;2023-12-07T00:45:27;24.92;;;12.75;;
71150;SDS011;59071;42.138;24.768;2023-12-07T00:47:52;26.05;;;13.40;;
71150;SDS011;59071;42.138;24.768;2023-12-07T00:50:18;27.90;;;13.85;;
71150;SDS011;59071;42.138;24.768;2023-12-07T00:52:43;25.75;;;13.05;;
71150;SDS011;59071;42.138;24.768;2023-12-07T00:55:08;23.73;;;13.35;;
71150;SDS011;59071;42.138;24.768;2023-12-07T00:57:34;24.13;;;12.07;;
71150;SDS011;59071;42.138;24.768;2023-12-07T00:59:59;24.30;;;13.02;;
71150;SDS011;59071;42.138;24.768;2023-12-07T01:02:24;24.30;;;12.52;;
71150;SDS011;59071;42.138;24.768;2023-12-07T01:04:50;23.40;;;12.00;;
71150;SDS011;59071;42.138;24.768;2023-12-07T01:07:15;22.15;;;12.38;;
71150;SDS011;59071;42.138;24.768;2023-12-07T01:09:41;23.58;;;12.90;;
71150;SDS011;59071;42.138;24.768;2023-12-07T01:12:06;21.80;;;11.98;;
71150;SDS011;59071;42.138;24.768;2023-12-07T01:14:32;24.95;;;12.82;;
71150;SDS011;59071;42.138;24.768;2023-12-07T01:16:57;21.42;;;11.95;;
71150;SDS011;59071;42.138;24.768;2023-12-07T01:19:23;22.13;;;11.80;;
71150;SDS011;59071;42.138;24.768;2023-12-07T01:21:50;23.27;;;12.30;;
71150;SDS011;59071;42.138;24.768;2023-12-07T01:24:15;23.27;;;12.23;;
71150;SDS011;59071;42.138;24.768;2023-12-07T01:26:40;23.02;;;12.10;;
71150;SDS011;59071;42.138;24.768;2023-12-07T01:29:06;25.65;;;13.18;;
71150;SDS011;59071;42.138;24.768;2023-12-07T01:31:31;27.75;;;14.70;;
71150;SDS011;59071;42.138;24.768;2023-12-07T01:33:57;24.88;;;13.70;;
71150;SDS011;59071;42.138;24.768;2023-12-07T01:36:22;26.92;;;13.90;;
71150;SDS011;59071;42.138;24.768;2023-12-07T01:38:47;26.10;;;14.05;;
71150;SDS011;59071;42.138;24.768;2023-12-07T01:41:13;30.02;;;13.93;;
71150;SDS011;59071;42.138;24.768;2023-12-07T01:43:44;26.08;;;12.90;;
71150;SDS011;59071;42.138;24.768;2023-12-07T01:46:10;24.08;;;13.43;;
71150;SDS011;59071;42.138;24.768;2023-12-07T01:48:36;25.05;;;13.20;;
71150;SDS011;59071;42.138;24.768;2023-12-07T01:51:01;30.67;;;13.43;;
71150;SDS011;59071;42.138;24.768;2023-12-07T01:53:27;23.33;;;12.30;;
71150;SDS011;59071;42.138;24.768;2023-12-07T01:55:53;24.25;;;12.45;;
71150;SDS011;59071;42.138;24.768;2023-12-07T01:58:19;25.17;;;12.93;;
71150;SDS011;59071;42.138;24.768;2023-12-07T02:00:46;26.80;;;12.18;;
71150;SDS011;59071;42.138;24.768;2023-12-07T02:03:12;24.95;;;12.45;;
71150;SDS011;59071;42.138;24.768;2023-12-07T02:05:40;23.77;;;11.95;;
71150;SDS011;59071;42.138;24.768;2023-12-07T02:10:33;20.67;;;11.85;;
71150;SDS011;59071;42.138;24.768;2023-12-07T02:12:59;21.95;;;11.15;;
71150;SDS011;59071;42.138;24.768;2023-12-07T02:15:25;20.48;;;12.23;;
71150;SDS011;59071;42.138;24.768;2023-12-07T02:17:57;25.80;;;12.73;;
71150;SDS011;59071;42.138;24.768;2023-12-07T02:23:23;27.77;;;13.77;;
71150;SDS011;59071;42.138;24.768;2023-12-07T02:25:53;25.42;;;12.52;;
71150;SDS011;59071;42.138;24.768;2023-12-07T02:28:19;24.42;;;12.90;;
71150;SDS011;59071;42.138;24.768;2023-12-07T02:30:45;22.17;;;12.05;;
71150;SDS011;59071;42.138;24.768;2023-12-07T02:33:11;23.63;;;12.90;;
71150;SDS011;59071;42.138;24.768;2023-12-07T02:35:38;22.70;;;12.50;;
71150;SDS011;59071;42.138;24.768;2023-12-07T02:38:05;24.23;;;12.77;;
71150;SDS011;59071;42.138;24.768;2023-12-07T02:40:33;26.13;;;13.65;;
71150;SDS011;59071;42.138;24.768;2023-12-07T02:42:59;22.20;;;13.20;;
71150;SDS011;59071;42.138;24.768;2023-12-07T02:45:26;28.42;;;13.45;;
71150;SDS011;59071;42.138;24.768;2023-12-07T02:47:52;27.60;;;13.10;;
71150;SDS011;59071;42.138;24.768;2023-12-07T02:50:18;29.90;;;14.10;;
71150;SDS011;59071;42.138;24.768;2023-12-07T02:52:43;26.77;;;13.07;;
71150;SDS011;59071;42.138;24.768;2023-12-07T02:55:09;27.65;;;13.90;;
71150;SDS011;59071;42.138;24.768;2023-12-07T02:57:34;25.52;;;13.95;;
71150;SDS011;59071;42.138;24.768;2023-12-07T03:00:00;29.48;;;14.75;;
71150;SDS011;59071;42.138;24.768;2023-12-07T03:02:31;37.58;;;17.50;;
71150;SDS011;59071;42.138;24.768;2023-12-07T03:04:58;37.03;;;18.30;;
71150;SDS011;59071;42.138;24.768;2023-12-07T03:07:23;39.90;;;19.42;;
71150;SDS011;59071;42.138;24.768;2023-12-07T03:09:49;39.30;;;19.38;;
71150;SDS011;59071;42.138;24.768;2023-12-07T03:12:14;36.92;;;17.85;;
71150;SDS011;59071;42.138;24.768;2023-12-07T03:14:39;36.65;;;17.83;;
71150;SDS011;59071;42.138;24.768;2023-12-07T03:17:05;40.92;;;18.48;;
71150;SDS011;59071;42.138;24.768;2023-12-07T03:19:30;39.13;;;18.25;;
71150;SDS011;59071;42.138;24.768;2023-12-07T03:21:55;33.53;;;17.25;;
71150;SDS011;59071;42.138;24.768;2023-12-07T03:24:21;41.75;;;17.25;;
71150;SDS011;59071;42.138;24.768;2023-12-07T03:26:46;37.00;;;17.00;;
71150;SDS011;59071;42.138;24.768;2023-12-07T03:29:11;34.55;;;16.50;;
71150;SDS011;59071;42.138;24.768;2023-12-07T03:31:37;35.45;;;17.15;;
71150;SDS011;59071;42.138;24.768;2023-12-07T03:34:02;32.95;;;16.58;;
71150;SDS011;59071;42.138;24.768;2023-12-07T03:36:28;34.10;;;16.80;;
71150;SDS011;59071;42.138;24.768;2023-12-07T03:38:53;38.97;;;17.13;;
71150;SDS011;59071;42.138;24.768;2023-12-07T03:41:19;33.85;;;16.27;;
71150;SDS011;59071;42.138;24.768;2023-12-07T03:43:44;33.95;;;15.68;;
71150;SDS011;59071;42.138;24.768;2023-12-07T03:46:10;35.50;;;16.33;;
71150;SDS011;59071;42.138;24.768;2023-12-07T03:48:35;37.08;;;16.77;;
71150;SDS011;59071;42.138;24.768;2023-12-07T03:51:01;38.15;;;18.27;;
71150;SDS011;59071;42.138;24.768;2023-12-07T03:53:26;40.55;;;18.90;;
71150;SDS011;59071;42.138;24.768;2023-12-07T03:55:52;34.28;;;17.15;;
71150;SDS011;59071;42.138;24.768;2023-12-07T03:58:17;37.65;;;17.98;;
71150;SDS011;59071;42.138;24.768;2023-12-07T04:00:43;35.03;;;17.00;;
71150;SDS011;59071;42.138;24.768;2023-12-07T04:03:10;34.42;;;16.75;;
71150;SDS011;59071;42.138;24.768;2023-12-07T04:05:35;36.00;;;17.60;;
71150;SDS011;59071;42.138;24.768;2023-12-07T04:08:00;34.40;;;15.70;;
71150;SDS011;59071;42.138;24.768;2023-12-07T04:10:26;35.92;;;16.92;;
71150;SDS011;59071;42.138;24.768;2023-12-07T04:12:51;31.58;;;15.77;;
71150;SDS011;59071;42.138;24.768;2023-12-07T04:15:18;35.83;;;16.45;;
71150;SDS011;59071;42.138;24.768;2023-12-07T04:17:44;36.67;;;16.77;;
71150;SDS011;59071;42.138;24.768;2023-12-07T04:20:09;31.83;;;15.75;;
71150;SDS011;59071;42.138;24.768;2023-12-07T04:22:35;32.08;;;15.73;;
71150;SDS011;59071;42.138;24.768;2023-12-07T04:25:00;35.95;;;16.83;;
71150;SDS011;59071;42.138;24.768;2023-12-07T04:27:25;36.10;;;17.90;;
71150;SDS011;59071;42.138;24.768;2023-12-07T04:29:51;38.83;;;18.00;;
71150;SDS011;59071;42.138;24.768;2023-12-07T04:32:16;35.95;;;17.15;;
71150;SDS011;59071;42.138;24.768;2023-12-07T04:34:41;35.20;;;17.83;;
71150;SDS011;59071;42.138;24.768;2023-12-07T04:37:07;36.92;;;17.02;;
71150;SDS011;59071;42.138;24.768;2023-12-07T04:39:32;36.80;;;18.83;;
71150;SDS011;59071;42.138;24.768;2023-12-07T04:41:57;35.97;;;17.85;;
71150;SDS011;59071;42.138;24.768;2023-12-07T04:44:23;41.15;;;20.38;;
71150;SDS011;59071;42.138;24.768;2023-12-07T04:46:50;36.72;;;17.92;;
71150;SDS011;59071;42.138;24.768;2023-12-07T04:49:16;38.67;;;18.20;;
71150;SDS011;59071;42.138;24.768;2023-12-07T04:51:41;43.63;;;20.05;;
71150;SDS011;59071;42.138;24.768;2023-12-07T04:54:11;42.95;;;18.85;;
71150;SDS011;59071;42.138;24.768;2023-12-07T04:56:37;42.03;;;20.60;;
71150;SDS011;59071;42.138;24.768;2023-12-07T04:59:02;46.63;;;20.33;;
71150;SDS011;59071;42.138;24.768;2023-12-07T05:01:27;41.55;;;19.80;;
71150;SDS011;59071;42.138;24.768;2023-12-07T05:03:53;46.13;;;21.02;;
71150;SDS011;59071;42.138;24.768;2023-12-07T05:06:18;43.67;;;20.52;;
71150;SDS011;59071;42.138;24.768;2023-12-07T05:08:44;46.95;;;20.98;;
71150;SDS011;59071;42.138;24.768;2023-12-07T05:11:09;46.63;;;20.67;;
71150;SDS011;59071;42.138;24.768;2023-12-07T05:13:34;40.95;;;18.95;;
71150;SDS011;59071;42.138;24.768;2023-12-07T05:16:00;50.58;;;21.15;;
71150;SDS011;59071;42.138;24.768;2023-12-07T05:18:26;43.60;;;20.83;;
71150;SDS011;59071;42.138;24.768;2023-12-07T05:20:51;44.78;;;21.08;;
71150;SDS011;59071;42.138;24.768;2023-12-07T05:23:16;46.13;;;21.90;;
71150;SDS011;59071;42.138;24.768;2023-12-07T05:25:42;48.42;;;22.65;;
71150;SDS011;59071;42.138;24.768;2023-12-07T05:28:08;49.15;;;22.42;;
71150;SDS011;59071;42.138;24.768;2023-12-07T05:30:34;55.25;;;25.40;;
71150;SDS011;59071;42.138;24.768;2023-12-07T05:33:01;53.28;;;24.10;;
71150;SDS011;59071;42.138;24.768;2023-12-07T05:35:26;56.50;;;26.70;;
71150;SDS011;59071;42.138;24.768;2023-12-07T05:37:52;47.97;;;23.00;;
71150;SDS011;59071;42.138;24.768;2023-12-07T05:40:17;47.00;;;22.95;;
71150;SDS011;59071;42.138;24.768;2023-12-07T05:42:43;46.38;;;21.77;;
71150;SDS011;59071;42.138;24.768;2023-12-07T05:45:09;45.53;;;23.08;;
71150;SDS011;59071;42.138;24.768;2023-12-07T05:47:35;44.42;;;21.52;;
71150;SDS011;59071;42.138;24.768;2023-12-07T05:50:01;46.90;;;21.27;;
71150;SDS011;59071;42.138;24.768;2023-12-07T05:52:28;40.47;;;20.55;;
71150;SDS011;59071;42.138;24.768;2023-12-07T05:54:53;45.58;;;22.13;;
71150;SDS011;59071;42.138;24.768;2023-12-07T05:57:19;46.13;;;22.88;;
71150;SDS011;59071;42.138;24.768;2023-12-07T05:59:44;46.08;;;22.42;;
71150;SDS011;59071;42.138;24.768;2023-12-07T06:02:09;44.70;;;22.52;;
71150;SDS011;59071;42.138;24.768;2023-12-07T06:04:35;43.53;;;22.50;;
71150;SDS011;59071;42.138;24.768;2023-12-07T06:07:00;43.50;;;21.65;;
71150;SDS011;59071;42.138;24.768;2023-12-07T06:09:27;41.95;;;21.40;;
71150;SDS011;59071;42.138;24.768;2023-12-07T06:11:52;41.80;;;22.40;;
71150;SDS011;59071;42.138;24.768;2023-12-07T06:14:18;45.90;;;21.20;;
71150;SDS011;59071;42.138;24.768;2023-12-07T06:16:43;44.95;;;22.95;;
71150;SDS011;59071;42.138;24.768;2023-12-07T06:19:09;47.78;;;24.02;;
71150;SDS011;59071;42.138;24.768;2023-12-07T06:21:34;48.40;;;23.13;;
71150;SDS011;59071;42.138;24.768;2023-12-07T06:23:59;48.78;;;21.58;;
71150;SDS011;59071;42.138;24.768;2023-12-07T06:26:25;46.83;;;23.08;;
71150;SDS011;59071;42.138;24.768;2023-12-07T06:28:51;53.05;;;24.50;;
71150;SDS011;59071;42.138;24.768;2023-12-07T06:31:16;46.05;;;23.42;;
71150;SDS011;59071;42.138;24.768;2023-12-07T06:36:17;52.30;;;24.25;;
71150;SDS011;59071;42.138;24.768;2023-12-07T06:38:43;54.05;;;25.08;;
71150;SDS011;59071;42.138;24.768;2023-12-07T06:41:08;49.38;;;24.75;;
71150;SDS011;59071;42.138;24.768;2023-12-07T06:43:33;53.47;;;26.13;;
71150;SDS011;59071;42.138;24.768;2023-12-07T06:45:59;51.47;;;25.38;;
71150;SDS011;59071;42.138;24.768;2023-12-07T06:48:24;55.03;;;26.40;;
71150;SDS011;59071;42.138;24.768;2023-12-07T06:50:50;53.45;;;25.55;;
71150;SDS011;59071;42.138;24.768;2023-12-07T06:53:16;48.70;;;24.48;;
71150;SDS011;59071;42.138;24.768;2023-12-07T06:55:43;51.20;;;25.90;;
71150;SDS011;59071;42.138;24.768;2023-12-07T06:58:08;56.28;;;29.30;;
71150;SDS011;59071;42.138;24.768;2023-12-07T07:00:35;57.90;;;28.85;;
71150;SDS011;59071;42.138;24.768;2023-12-07T07:03:01;61.75;;;30.58;;
71150;SDS011;59071;42.138;24.768;2023-12-07T07:05:26;57.70;;;30.20;;
71150;SDS011;59071;42.138;24.768;2023-12-07T07:07:52;60.95;;;31.92;;
71150;SDS011;59071;42.138;24.768;2023-12-07T07:10:17;68.38;;;34.38;;
71150;SDS011;59071;42.138;24.768;2023-12-07T07:12:43;80.63;;;37.33;;
71150;SDS011;59071;42.138;24.768;2023-12-07T07:15:08;66.25;;;34.00;;
71150;SDS011;59071;42.138;24.768;2023-12-07T07:17:34;64.88;;;35.45;;
71150;SDS011;59071;42.138;24.768;2023-12-07T07:19:59;70.55;;;35.42;;
71150;SDS011;59071;42.138;24.768;2023-12-07T07:22:25;67.55;;;35.20;;
71150;SDS011;59071;42.138;24.768;2023-12-07T07:24:50;59.08;;;33.25;;
71150;SDS011;59071;42.138;24.768;2023-12-07T07:27:15;63.90;;;35.47;;
71150;SDS011;59071;42.138;24.768;2023-12-07T07:29:41;68.65;;;37.67;;
71150;SDS011;59071;42.138;24.768;2023-12-07T07:32:06;65.35;;;36.15;;
71150;SDS011;59071;42.138;24.768;2023-12-07T07:34:32;61.47;;;34.55;;
71150;SDS011;59071;42.138;24.768;2023-12-07T07:36:58;66.00;;;33.47;;
71150;SDS011;59071;42.138;24.768;2023-12-07T07:39:23;61.90;;;33.00;;
71150;SDS011;59071;42.138;24.768;2023-12-07T07:41:48;68.38;;;34.92;;
71150;SDS011;59071;42.138;24.768;2023-12-07T07:44:14;62.92;;;34.38;;
71150;SDS011;59071;42.138;24.768;2023-12-07T07:46:42;65.38;;;35.08;;
71150;SDS011;59071;42.138;24.768;2023-12-07T07:49:07;70.47;;;36.90;;
71150;SDS011;59071;42.138;24.768;2023-12-07T07:51:33;68.35;;;35.40;;
71150;SDS011;59071;42.138;24.768;2023-12-07T07:53:59;59.72;;;33.97;;
71150;SDS011;59071;42.138;24.768;2023-12-07T07:56:24;66.00;;;35.38;;
71150;SDS011;59071;42.138;24.768;2023-12-07T07:58:50;59.83;;;34.80;;
71150;SDS011;59071;42.138;24.768;2023-12-07T08:01:16;59.40;;;34.28;;
71150;SDS011;59071;42.138;24.768;2023-12-07T08:03:41;60.22;;;34.42;;
71150;SDS011;59071;42.138;24.768;2023-12-07T08:06:07;55.80;;;33.30;;
71150;SDS011;59071;42.138;24.768;2023-12-07T08:08:33;56.92;;;32.05;;
71150;SDS011;59071;42.138;24.768;2023-12-07T08:10:59;56.75;;;31.95;;
71150;SDS011;59071;42.138;24.768;2023-12-07T08:13:24;65.55;;;30.63;;
71150;SDS011;59071;42.138;24.768;2023-12-07T08:15:49;49.58;;;30.45;;
71150;SDS011;59071;42.138;24.768;2023-12-07T08:18:15;56.17;;;33.45;;
71150;SDS011;59071;42.138;24.768;2023-12-07T08:20:40;60.67;;;34.40;;
71150;SDS011;59071;42.138;24.768;2023-12-07T08:23:05;62.80;;;35.28;;
71150;SDS011;59071;42.138;24.768;2023-12-07T08:25:31;61.55;;;36.20;;
71150;SDS011;59071;42.138;24.768;2023-12-07T08:27:57;56.63;;;33.00;;
71150;SDS011;59071;42.138;24.768;2023-12-07T08:30:22;58.85;;;32.90;;
71150;SDS011;59071;42.138;24.768;2023-12-07T08:32:48;55.67;;;33.25;;
71150;SDS011;59071;42.138;24.768;2023-12-07T08:35:13;53.40;;;31.48;;
71150;SDS011;59071;42.138;24.768;2023-12-07T08:37:39;61.40;;;32.67;;
71150;SDS011;59071;42.138;24.768;2023-12-07T08:40:06;53.33;;;31.77;;
71150;SDS011;59071;42.138;24.768;2023-12-07T08:42:32;54.45;;;30.88;;
71150;SDS011;59071;42.138;24.768;2023-12-07T08:44:57;56.70;;;32.70;;
71150;SDS011;59071;42.138;24.768;2023-12-07T08:47:23;56.13;;;32.28;;
71150;SDS011;59071;42.138;24.768;2023-12-07T08:49:48;53.85;;;30.52;;
71150;SDS011;59071;42.138;24.768;2023-12-07T08:52:16;51.00;;;29.08;;
71150;SDS011;59071;42.138;24.768;2023-12-07T08:54:42;51.28;;;29.48;;
71150;SDS011;59071;42.138;24.768;2023-12-07T08:57:08;53.60;;;31.02;;
71150;SDS011;59071;42.138;24.768;2023-12-07T08:59:33;52.55;;;29.95;;
71150;SDS011;59071;42.138;24.768;2023-12-07T09:01:59;53.65;;;30.98;;
71150;SDS011;59071;42.138;24.768;2023-12-07T09:04:25;55.08;;;31.85;;
71150;SDS011;59071;42.138;24.768;2023-12-07T09:06:50;57.25;;;29.98;;
71150;SDS011;59071;42.138;24.768;2023-12-07T09:09:15;49.83;;;28.92;;
71150;SDS011;59071;42.138;24.768;2023-12-07T09:11:41;51.30;;;28.88;;
71150;SDS011;59071;42.138;24.768;2023-12-07T09:14:06;51.45;;;29.13;;
71150;SDS011;59071;42.138;24.768;2023-12-07T09:16:31;57.33;;;31.45;;
71150;SDS011;59071;42.138;24.768;2023-12-07T09:18:57;55.20;;;31.27;;
71150;SDS011;59071;42.138;24.768;2023-12-07T09:21:22;56.60;;;31.35;;
71150;SDS011;59071;42.138;24.768;2023-12-07T09:23:48;48.28;;;27.73;;
71150;SDS011;59071;42.138;24.768;2023-12-07T09:26:13;45.55;;;28.00;;
71150;SDS011;59071;42.138;24.768;2023-12-07T09:28:38;54.38;;;30.65;;
71150;SDS011;59071;42.138;24.768;2023-12-07T09:31:04;47.50;;;27.58;;
71150;SDS011;59071;42.138;24.768;2023-12-07T09:33:31;45.70;;;25.88;;
71150;SDS011;59071;42.138;24.768;2023-12-07T09:35:56;42.60;;;24.58;;
71150;SDS011;59071;42.138;24.768;2023-12-07T09:38:21;46.40;;;27.88;;
71150;SDS011;59071;42.138;24.768;2023-12-07T09:40:47;40.95;;;23.80;;
71150;SDS011;59071;42.138;24.768;2023-12-07T09:43:17;37.40;;;22.13;;
71150;SDS011;59071;42.138;24.768;2023-12-07T09:45:43;39.35;;;22.30;;
71150;SDS011;59071;42.138;24.768;2023-12-07T09:48:09;34.70;;;19.42;;
71150;SDS011;59071;42.138;24.768;2023-12-07T09:50:34;31.63;;;16.08;;
71150;SDS011;59071;42.138;24.768;2023-12-07T09:53:01;22.73;;;13.93;;
71150;SDS011;59071;42.138;24.768;2023-12-07T09:55:27;20.60;;;12.68;;
71150;SDS011;59071;42.138;24.768;2023-12-07T09:57:53;20.38;;;12.35;;
71150;SDS011;59071;42.138;24.768;2023-12-07T10:00:21;20.60;;;13.07;;
71150;SDS011;59071;42.138;24.768;2023-12-07T10:02:47;19.30;;;11.82;;
71150;SDS011;59071;42.138;24.768;2023-12-07T10:05:13;16.65;;;11.00;;
71150;SDS011;59071;42.138;24.768;2023-12-07T10:07:41;20.75;;;12.48;;
71150;SDS011;59071;42.138;24.768;2023-12-07T10:10:12;20.73;;;11.45;;
71150;SDS011;59071;42.138;24.768;2023-12-07T10:12:56;19.15;;;12.05;;
71150;SDS011;59071;42.138;24.768;2023-12-07T10:15:24;20.10;;;12.88;;
71150;SDS011;59071;42.138;24.768;2023-12-07T10:17:54;17.52;;;10.82;;
71150;SDS011;59071;42.138;24.768;2023-12-07T10:20:22;18.85;;;11.10;;
71150;SDS011;59071;42.138;24.768;2023-12-07T10:22:49;19.08;;;10.82;;
71150;SDS011;59071;42.138;24.768;2023-12-07T10:25:38;16.45;;;10.88;;
71150;SDS011;59071;42.138;24.768;2023-12-07T10:28:04;22.83;;;11.15;;
71150;SDS011;59071;42.138;24.768;2023-12-07T10:30:32;18.27;;;10.27;;
71150;SDS011;59071;42.138;24.768;2023-12-07T10:32:58;19.02;;;10.43;;
71150;SDS011;59071;42.138;24.768;2023-12-07T10:35:24;17.60;;;11.15;;
71150;SDS011;59071;42.138;24.768;2023-12-07T10:37:50;19.55;;;11.50;;
71150;SDS011;59071;42.138;24.768;2023-12-07T10:40:16;18.05;;;11.63;;
71150;SDS011;59071;42.138;24.768;2023-12-07T10:42:41;17.55;;;11.48;;
71150;SDS011;59071;42.138;24.768;2023-12-07T10:45:12;18.25;;;11.52;;
71150;SDS011;59071;42.138;24.768;2023-12-07T10:47:40;19.77;;;11.68;;
71150;SDS011;59071;42.138;24.768;2023-12-07T10:50:09;16.88;;;10.60;;
71150;SDS011;59071;42.138;24.768;2023-12-07T10:52:45;18.23;;;11.13;;
71150;SDS011;59071;42.138;24.768;2023-12-07T10:55:17;17.98;;;12.10;;
71150;SDS011;59071;42.138;24.768;2023-12-07T10:57:46;23.50;;;12.07;;
71150;SDS011;59071;42.138;24.768;2023-12-07T11:00:12;16.65;;;11.05;;
71150;SDS011;59071;42.138;24.768;2023-12-07T11:02:38;18.40;;;12.02;;
71150;SDS011;59071;42.138;24.768;2023-12-07T11:05:06;22.33;;;12.30;;
71150;SDS011;59071;42.138;24.768;2023-12-07T11:07:41;19.17;;;11.65;;
71150;SDS011;59071;42.138;24.768;2023-12-07T11:15:42;18.75;;;11.40;;
71150;SDS011;59071;42.138;24.768;2023-12-07T11:18:08;20.17;;;11.88;;
71150;SDS011;59071;42.138;24.768;2023-12-07T11:20:43;19.40;;;11.02;;
71150;SDS011;59071;42.138;24.768;2023-12-07T11:23:11;15.55;;;10.18;;
71150;SDS011;59071;42.138;24.768;2023-12-07T11:25:41;15.77;;;9.32;;
71150;SDS011;59071;42.138;24.768;2023-12-07T11:28:10;14.13;;;9.23;;
71150;SDS011;59071;42.138;24.768;2023-12-07T11:30:36;20.10;;;9.80;;
71150;SDS011;59071;42.138;24.768;2023-12-07T11:33:05;16.35;;;10.10;;
71150;SDS011;59071;42.138;24.768;2023-12-07T11:35:31;15.90;;;9.35;;
71150;SDS011;59071;42.138;24.768;2023-12-07T11:38:01;15.77;;;9.75;;
71150;SDS011;59071;42.138;24.768;2023-12-07T11:40:33;14.63;;;8.98;;
71150;SDS011;59071;42.138;24.768;2023-12-07T11:43:00;13.88;;;8.15;;
71150;SDS011;59071;42.138;24.768;2023-12-07T11:45:46;14.00;;;8.75;;
71150;SDS011;59071;42.138;24.768;2023-12-07T11:48:16;13.85;;;7.70;;
71150;SDS011;59071;42.138;24.768;2023-12-07T11:53:24;11.43;;;7.72;;
71150;SDS011;59071;42.138;24.768;2023-12-07T11:55:55;11.63;;;7.57;;
71150;SDS011;59071;42.138;24.768;2023-12-07T11:58:21;10.70;;;7.68;;
71150;SDS011;59071;42.138;24.768;2023-12-07T12:00:47;12.43;;;8.30;;
71150;SDS011;59071;42.138;24.768;2023-12-07T12:03:13;14.27;;;8.60;;
71150;SDS011;59071;42.138;24.768;2023-12-07T12:05:39;16.15;;;8.43;;
71150;SDS011;59071;42.138;24.768;2023-12-07T12:08:05;14.00;;;8.18;;
71150;SDS011;59071;42.138;24.768;2023-12-07T12:10:31;15.90;;;8.40;;
71150;SDS011;59071;42.138;24.768;2023-12-07T12:12:57;13.15;;;8.05;;
71150;SDS011;59071;42.138;24.768;2023-12-07T12:15:22;16.67;;;8.45;;
71150;SDS011;59071;42.138;24.768;2023-12-07T12:17:47;14.75;;;8.88;;
71150;SDS011;59071;42.138;24.768;2023-12-07T12:20:13;16.48;;;9.05;;
71150;SDS011;59071;42.138;24.768;2023-12-07T12:22:42;12.35;;;8.02;;
71150;SDS011;59071;42.138;24.768;2023-12-07T12:25:08;13.00;;;8.30;;
71150;SDS011;59071;42.138;24.768;2023-12-07T12:27:34;13.93;;;8.32;;
71150;SDS011;59071;42.138;24.768;2023-12-07T12:30:00;13.52;;;8.38;;
71150;SDS011;59071;42.138;24.768;2023-12-07T12:32:27;17.08;;;8.55;;
71150;SDS011;59071;42.138;24.768;2023-12-07T12:34:52;18.02;;;10.98;;
71150;SDS011;59071;42.138;24.768;2023-12-07T12:37:18;18.85;;;10.43;;
71150;SDS011;59071;42.138;24.768;2023-12-07T12:39:43;16.52;;;9.07;;
71150;SDS011;59071;42.138;24.768;2023-12-07T12:42:08;13.48;;;8.55;;
71150;SDS011;59071;42.138;24.768;2023-12-07T12:44:36;16.70;;;8.90;;
71150;SDS011;59071;42.138;24.768;2023-12-07T12:47:06;18.30;;;8.45;;
71150;SDS011;59071;42.138;24.768;2023-12-07T12:49:35;23.08;;;10.38;;
71150;SDS011;59071;42.138;24.768;2023-12-07T12:52:01;16.08;;;8.95;;
71150;SDS011;59071;42.138;24.768;2023-12-07T12:54:30;19.15;;;9.25;;
71150;SDS011;59071;42.138;24.768;2023-12-07T12:56:57;16.30;;;8.75;;
71150;SDS011;59071;42.138;24.768;2023-12-07T12:59:23;23.52;;;9.27;;
71150;SDS011;59071;42.138;24.768;2023-12-07T13:01:50;17.35;;;8.48;;
71150;SDS011;59071;42.138;24.768;2023-12-07T13:04:16;16.70;;;8.88;;
71150;SDS011;59071;42.138;24.768;2023-12-07T13:06:41;13.65;;;8.38;;
71150;SDS011;59071;42.138;24.768;2023-12-07T13:09:06;13.15;;;7.68;;
71150;SDS011;59071;42.138;24.768;2023-12-07T13:11:32;15.63;;;8.02;;
71150;SDS011;59071;42.138;24.768;2023-12-07T13:13:58;13.85;;;7.70;;
71150;SDS011;59071;42.138;24.768;2023-12-07T13:16:24;16.15;;;8.30;;
71150;SDS011;59071;42.138;24.768;2023-12-07T13:18:49;17.65;;;8.00;;
71150;SDS011;59071;42.138;24.768;2023-12-07T13:21:15;19.48;;;8.70;;
71150;SDS011;59071;42.138;24.768;2023-12-07T13:23:40;22.95;;;10.30;;
71150;SDS011;59071;42.138;24.768;2023-12-07T13:26:06;16.63;;;9.30;;
71150;SDS011;59071;42.138;24.768;2023-12-07T13:28:32;14.32;;;8.07;;
71150;SDS011;59071;42.138;24.768;2023-12-07T13:30:58;13.32;;;8.32;;
71150;SDS011;59071;42.138;24.768;2023-12-07T13:33:23;14.70;;;7.97;;
71150;SDS011;59071;42.138;24.768;2023-12-07T13:35:49;15.32;;;8.30;;
71150;SDS011;59071;42.138;24.768;2023-12-07T13:38:15;12.77;;;7.57;;
71150;SDS011;59071;42.138;24.768;2023-12-07T13:40:40;12.13;;;7.82;;
71150;SDS011;59071;42.138;24.768;2023-12-07T13:43:06;13.98;;;8.25;;
71150;SDS011;59071;42.138;24.768;2023-12-07T13:45:31;17.70;;;8.63;;
71150;SDS011;59071;42.138;24.768;2023-12-07T13:47:57;17.38;;;9.18;;
71150;SDS011;59071;42.138;24.768;2023-12-07T13:50:23;15.75;;;8.70;;
71150;SDS011;59071;42.138;24.768;2023-12-07T13:52:49;15.82;;;9.05;;
71150;SDS011;59071;42.138;24.768;2023-12-07T13:55:14;16.13;;;9.07;;
71150;SDS011;59071;42.138;24.768;2023-12-07T13:57:40;19.38;;;9.20;;
71150;SDS011;59071;42.138;24.768;2023-12-07T14:00:06;16.13;;;9.10;;
71150;SDS011;59071;42.138;24.768;2023-12-07T14:02:31;14.80;;;9.27;;
71150;SDS011;59071;42.138;24.768;2023-12-07T14:04:57;17.02;;;9.75;;
71150;SDS011;59071;42.138;24.768;2023-12-07T14:07:22;18.58;;;10.25;;
71150;SDS011;59071;42.138;24.768;2023-12-07T14:09:48;16.15;;;9.57;;
71150;SDS011;59071;42.138;24.768;2023-12-07T14:12:16;19.05;;;10.23;;
71150;SDS011;59071;42.138;24.768;2023-12-07T14:14:42;20.25;;;10.40;;
71150;SDS011;59071;42.138;24.768;2023-12-07T14:17:09;16.17;;;10.30;;
71150;SDS011;59071;42.138;24.768;2023-12-07T14:19:35;18.13;;;11.07;;
71150;SDS011;59071;42.138;24.768;2023-12-07T14:22:00;19.15;;;11.40;;